Time;durP1;ratioP1;P1;durP2;ratioP2;P2;SDS_P1;SDS_P2;PMS_P1;PMS_P2;Temp;Humidity;BMP_temperature;BMP_pressure;BME280_temperature;BME280_humidity;BME280_pressure;Samples;Min_cycle;Max_cycle;Signal;HPM_P1;HPM_P2
2022/04/04 00:08:55;;;;;;;11.23;6.17;;;3.50;59.40;;;;;;21087298;28;20630;-70
2022/04/04 00:18:57;;;;;;;9.40;5.87;;;3.60;59.60;;;;;;21085649;28;20213;-65
2022/04/04 00:28:58;;;;;;;10.77;6.20;;;3.40;59.80;;;;;;21082939;28;20240;-67
2022/04/04 00:39:00;;;;;;;8.63;5.00;;;3.40;60.00;;;;;;21084801;28;20209;-64
2022/04/04 00:49:02;;;;;;;10.13;4.80;;;3.30;60.60;;;;;;21083659;28;20739;-65
2022/04/04 00:59:05;;;;;;;5.90;4.30;;;3.30;59.80;;;;;;21082985;28;20212;-66
2022/04/04 01:09:07;;;;;;;7.87;5.00;;;3.30;60.40;;;;;;21082007;28;20244;-67
2022/04/04 01:19:09;;;;;;;7.17;4.47;;;3.20;59.90;;;;;;21081667;28;20215;-65
2022/04/04 01:29:10;;;;;;;7.90;4.47;;;3.30;60.60;;;;;;21080767;28;20277;-65
2022/04/04 01:39:12;;;;;;;6.57;4.37;;;3.20;59.90;;;;;;21079825;28;20212;-67
2022/04/04 01:49:14;;;;;;;7.03;4.70;;;3.20;60.40;;;;;;21079901;28;20677;-69
2022/04/04 01:59:16;;;;;;;9.60;4.80;;;3.30;60.00;;;;;;21078949;28;20264;-66
2022/04/04 02:09:17;;;;;;;6.10;4.67;;;3.20;60.40;;;;;;21078230;28;20240;-69
2022/04/04 02:19:19;;;;;;;6.40;4.70;;;3.20;60.00;;;;;;21086609;28;20200;-69
2022/04/04 02:29:21;;;;;;;6.57;4.90;;;3.20;60.80;;;;;;21159665;28;20739;-68
2022/04/04 02:39:23;;;;;;;8.13;4.73;;;3.20;60.20;;;;;;21161515;28;20211;-70
2022/04/04 02:49:25;;;;;;;9.17;5.17;;;3.10;60.70;;;;;;21167570;28;20231;-67
2022/04/04 02:59:26;;;;;;;9.30;5.13;;;3.10;61.50;;;;;;21177145;28;20201;-71
2022/04/04 03:09:28;;;;;;;7.63;5.23;;;3.10;61.90;;;;;;21176002;28;20245;-67
2022/04/04 03:19:30;;;;;;;12.20;5.40;;;;;;;;;;21176086;28;20210;-64
2022/04/04 03:29:32;;;;;;;7.57;5.30;;;3.10;61.70;;;;;;21181819;28;20688;-67
2022/04/04 03:39:34;;;;;;;8.37;5.50;;;3.00;61.90;;;;;;21186904;28;20287;-65
2022/04/04 03:49:36;;;;;;;10.30;6.43;;;3.00;62.20;;;;;;21174284;28;20234;-66
2022/04/04 03:59:38;;;;;;;8.50;6.33;;;3.10;62.30;;;;;;21172185;28;20295;-66
2022/04/04 04:09:40;;;;;;;10.87;6.47;;;3.10;62.90;;;;;;21171546;28;20244;-65
2022/04/04 04:30:03;;;;;;;14.30;7.70;;;3.20;62.90;;;;;;21082636;28;20729;-66
2022/04/04 04:40:06;;;;;;;11.13;7.57;;;3.20;63.60;;;;;;21084201;28;20252;-65
2022/04/04 04:50:09;;;;;;;11.80;7.30;;;3.20;62.90;;;;;;21083741;28;20327;-65
2022/04/04 05:00:13;;;;;;;11.33;7.73;;;3.10;63.60;;;;;;21081575;28;20207;-68
2022/04/04 05:10:15;;;;;;;13.57;8.20;;;3.10;63.80;;;;;;21080685;28;20321;-65
2022/04/04 05:20:16;;;;;;;18.13;10.37;;;3.10;63.90;;;;;;21119994;27;20208;-66
2022/04/04 05:30:19;;;;;;;17.10;11.60;;;3.20;64.00;;;;;;21211942;27;20318;-65
2022/04/04 05:40:22;;;;;;;16.83;8.90;;;3.20;64.50;;;;;;21196253;27;20560;-66
2022/04/04 05:50:24;;;;;;;14.57;9.97;;;3.50;64.00;;;;;;21161442;28;20228;-67
2022/04/04 06:00:25;;;;;;;14.43;12.40;;;3.70;64.10;;;;;;21166737;27;20430;-66
2022/04/04 06:10:27;;;;;;;17.30;11.37;;;4.10;62.70;;;;;;21160696;28;20241;-72
2022/04/04 06:20:29;;;;;;;15.00;10.00;;;4.00;62.10;;;;;;21147644;28;20210;-71
2022/04/04 06:30:34;;;;;;;17.00;10.53;;;4.10;61.50;;;;;;21176544;27;20235;-76
2022/04/04 06:45:48;;;;;;;13.50;9.83;;;4.50;60.00;;;;;;21064823;28;20570;-70
2022/04/04 06:55:50;;;;;;;12.90;9.40;;;4.60;59.60;;;;;;21007519;28;20210;-68
2022/04/04 07:05:51;;;;;;;12.53;9.47;;;4.60;59.60;;;;;;20906284;28;20657;-64
2022/04/04 07:15:53;;;;;;;15.43;9.43;;;4.90;59.80;;;;;;20954285;28;20206;-64
2022/04/04 07:25:55;;;;;;;12.13;9.00;;;5.10;59.00;;;;;;20944892;28;20213;-63
2022/04/04 07:35:56;;;;;;;12.10;8.47;;;5.10;58.80;;;;;;20951452;28;20571;-63
2022/04/04 07:45:58;;;;;;;15.73;7.80;;;5.40;58.60;;;;;;20974628;28;20203;-61
2022/04/04 07:56:01;;;;;;;10.47;7.67;;;5.50;57.60;;;;;;20928030;28;20671;-65
2022/04/04 08:06:03;;;;;;;12.53;7.57;;;5.50;58.10;;;;;;20936190;28;20211;-61
2022/04/04 08:16:05;;;;;;;8.10;6.60;;;6.00;56.80;;;;;;20921633;28;20218;-62
2022/04/04 08:26:07;;;;;;;11.83;7.40;;;6.20;56.40;;;;;;20983348;28;20293;-62
2022/04/04 08:36:08;;;;;;;9.50;6.30;;;6.30;56.70;;;;;;21001374;28;20769;-59
2022/04/04 08:46:10;;;;;;;9.57;6.40;;;6.50;55.10;;;;;;21001922;28;20233;-61
2022/04/04 08:56:12;;;;;;;8.23;6.17;;;6.60;55.20;;;;;;20967829;28;20609;-62
2022/04/04 09:06:14;;;;;;;9.10;5.50;;;8.40;55.90;;;;;;20914886;28;20212;-61
2022/04/04 09:16:16;;;;;;;10.90;5.63;;;7.10;52.10;;;;;;20915107;28;20208;-64
2022/04/04 09:26:29;;;;;;;8.80;6.07;;;7.40;51.90;;;;;;20882462;28;20268;-68
2022/04/04 09:36:31;;;;;;;8.03;5.37;;;7.40;52.90;;;;;;20914313;28;20243;-71
2022/04/04 09:46:35;;;;;;;8.37;5.50;;;7.90;50.70;;;;;;20911998;28;20204;-66
2022/04/04 09:56:37;;;;;;;6.63;5.33;;;8.00;50.70;;;;;;20912009;28;20229;-69
2022/04/04 10:06:42;;;;;;;8.30;5.23;;;8.10;51.00;;;;;;20910847;28;20675;-67
2022/04/04 10:16:44;;;;;;;6.57;5.07;;;8.20;50.60;;;;;;20913456;28;20232;-67
2022/04/04 10:26:50;;;;;;;6.50;5.43;;;8.40;49.10;;;;;;20891873;28;20208;-67
2022/04/04 10:37:06;;;;;;;7.47;5.63;;;8.40;48.80;;;;;;20993478;28;20577;-70
2022/04/04 10:47:23;;;;;;;9.50;5.93;;;8.40;49.40;;;;;;20993067;28;20217;-66
2022/04/04 10:57:25;;;;;;;8.03;5.77;;;8.40;48.90;;;;;;20945453;28;20234;-66
2022/04/04 11:07:41;;;;;;;8.93;5.80;;;8.50;49.10;;;;;;20907754;28;20218;-62
2022/04/04 11:17:56;;;;;;;5.70;4.87;;;8.50;48.30;;;;;;20906993;28;20709;-72
2022/04/04 11:27:57;;;;;;;6.03;5.03;;;8.50;48.60;;;;;;20915318;28;20205;-70
2022/04/04 11:38:06;;;;;;;7.83;5.67;;;8.60;48.80;;;;;;20923906;28;20230;-68
2022/04/04 11:48:17;;;;;;;6.87;5.43;;;8.80;48.00;;;;;;20910781;28;20206;-72
2022/04/04 11:58:25;;;;;;;8.03;6.10;;;9.20;47.60;;;;;;20900703;28;20238;-67
2022/04/04 12:08:27;;;;;;;7.80;5.90;;;9.50;46.70;;;;;;20839088;28;20224;-68
2022/04/04 12:18:29;;;;;;;7.03;5.63;;;9.60;46.10;;;;;;20899470;28;20228;-67
2022/04/04 12:28:33;;;;;;;8.13;4.90;;;9.70;46.00;;;;;;20917510;28;20205;-64
2022/04/04 12:38:40;;;;;;;5.90;5.30;;;9.70;45.40;;;;;;20918221;28;20238;-66
2022/04/04 12:48:43;;;;;;;6.93;5.73;;;9.70;45.40;;;;;;20904855;28;20209;-67
2022/04/04 12:59:10;;;;;;;6.17;5.13;;;9.60;45.70;;;;;;20834920;28;20236;-67
2022/04/04 13:09:25;;;;;;;12.13;7.10;;;9.70;45.70;;;;;;20892768;28;20217;-71
2022/04/04 13:19:26;;;;;;;7.47;6.00;;;9.70;45.10;;;;;;20915087;28;20239;-63
2022/04/04 13:29:28;;;;;;;13.67;5.83;;;9.50;45.00;;;;;;20903108;28;20215;-63
2022/04/04 13:39:30;;;;;;;7.63;6.20;;;9.40;45.40;;;;;;20913125;28;20245;-62
2022/04/04 13:49:32;;;;;;;8.60;6.50;;;9.40;45.30;;;;;;20911802;28;20215;-67
2022/04/04 13:59:34;;;;;;;8.97;6.90;;;9.50;45.50;;;;;;20911096;28;20228;-64
2022/04/04 14:09:36;;;;;;;8.90;6.93;;;9.50;46.00;;;;;;20912149;28;20253;-63
2022/04/04 14:19:38;;;;;;;8.10;6.50;;;9.60;46.20;;;;;;20941700;28;20348;-64
2022/04/04 14:29:39;;;;;;;7.17;6.03;;;9.70;46.70;;;;;;20993699;28;20210;-62
2022/04/04 14:39:43;;;;;;;8.90;6.67;;;9.70;45.20;;;;;;20993157;28;20605;-64
2022/04/04 14:49:45;;;;;;;6.57;5.40;;;9.80;44.40;;;;;;20972749;28;20229;-65
2022/04/04 14:59:47;;;;;;;6.43;5.37;;;9.80;44.90;;;;;;20913070;28;20254;-62
2022/04/04 15:09:51;;;;;;;5.90;4.87;;;9.90;43.80;;;;;;20925445;28;20295;-62
2022/04/04 15:19:52;;;;;;;7.43;4.83;;;9.90;43.80;;;;;;20924730;28;20237;-69
2022/04/04 15:29:54;;;;;;;7.37;5.40;;;9.90;43.90;;;;;;20924712;28;20260;-65
2022/04/04 15:39:56;;;;;;;7.70;6.40;;;9.80;45.30;;;;;;20924179;28;20242;-65
2022/04/04 15:49:58;;;;;;;6.80;5.47;;;9.60;46.60;;;;;;20900156;28;20232;-66
2022/04/04 16:00:00;;;;;;;7.40;5.87;;;9.50;47.50;;;;;;20858605;28;20246;-66
2022/04/04 16:10:03;;;;;;;7.43;5.77;;;9.50;48.00;;;;;;20922879;28;20203;-67
2022/04/04 16:20:06;;;;;;;9.47;6.70;;;9.00;52.20;;;;;;20871520;28;20249;-65
2022/04/04 16:30:08;;;;;;;7.47;6.20;;;8.70;54.50;;;;;;20858302;28;20210;-66
2022/04/04 16:40:10;;;;;;;8.67;6.27;;;8.70;55.90;;;;;;20950595;28;20252;-67
2022/04/04 16:50:18;;;;;;;10.07;7.13;;;8.70;56.30;;;;;;20960827;28;20206;-70
2022/04/04 17:00:20;;;;;;;14.53;8.23;;;8.70;54.00;;;;;;21003190;28;20241;-67
2022/04/04 17:10:22;;;;;;;10.80;7.13;;;8.70;53.30;;;;;;21000342;28;20235;-65
2022/04/04 17:20:25;;;;;;;8.67;6.63;;;8.60;53.20;;;;;;20972528;28;20237;-65
2022/04/04 17:30:27;;;;;;;9.87;5.90;;;8.60;53.00;;;;;;20954403;28;20293;-70
2022/04/04 17:40:29;;;;;;;8.83;6.83;;;8.60;53.60;;;;;;20975375;28;20701;-68
2022/04/04 17:50:31;;;;;;;13.17;8.33;;;8.50;55.10;;;;;;20931254;28;20209;-73
2022/04/04 18:00:33;;;;;;;11.80;7.00;;;8.40;56.20;;;;;;20920325;28;20306;-70
2022/04/04 18:10:35;;;;;;;8.80;6.23;;;8.10;58.50;;;;;;20957283;28;20215;-70
2022/04/04 18:20:37;;;;;;;14.40;7.93;;;8.20;58.60;;;;;;20996276;28;20646;-71
2022/04/04 18:30:38;;;;;;;10.80;7.93;;;8.20;59.50;;;;;;20978536;28;20672;-67
2022/04/04 18:40:40;;;;;;;12.63;9.27;;;8.10;60.40;;;;;;20994465;28;20244;-71
2022/04/04 18:50:42;;;;;;;13.00;8.10;;;8.00;61.60;;;;;;20928007;28;20666;-71
2022/04/04 19:00:44;;;;;;;9.77;8.13;;;7.80;63.60;;;;;;20950343;28;20239;-70
2022/04/04 19:10:46;;;;;;;11.07;8.37;;;7.70;65.00;;;;;;20950697;28;20646;-67
2022/04/04 19:20:48;;;;;;;10.57;8.43;;;7.60;65.90;;;;;;20996289;28;20769;-70
2022/04/04 19:30:52;;;;;;;10.80;8.63;;;7.50;66.40;;;;;;20930335;28;20238;-72
2022/04/04 19:40:54;;;;;;;9.77;7.90;;;7.50;66.40;;;;;;20908644;28;20243;-71
2022/04/04 19:50:56;;;;;;;10.70;8.30;;;7.50;66.30;;;;;;20919967;28;20580;-72
2022/04/04 20:00:59;;;;;;;9.87;7.97;;;7.50;66.10;;;;;;20922868;28;20236;-71
2022/04/04 20:11:01;;;;;;;11.73;8.07;;;7.60;65.80;;;;;;20922564;28;20708;-71
2022/04/04 20:21:03;;;;;;;11.33;8.57;;;7.60;66.40;;;;;;20920566;28;20232;-71
2022/04/04 20:31:07;;;;;;;12.87;9.10;;;7.60;65.50;;;;;;20921091;28;20213;-71
2022/04/04 20:41:12;;;;;;;13.13;9.20;;;7.60;65.40;;;;;;20916980;28;20245;-73
2022/04/04 20:51:15;;;;;;;12.13;9.87;;;7.50;65.40;;;;;;20836945;28;20212;-71
2022/04/04 21:01:17;;;;;;;13.30;10.57;;;7.70;66.70;;;;;;20836390;28;20239;-72
2022/04/04 21:11:19;;;;;;;12.90;10.83;;;7.60;66.90;;;;;;20951282;28;20201;-69
2022/04/04 21:21:20;;;;;;;14.80;11.37;;;7.60;67.90;;;;;;20916624;28;20239;-69
2022/04/04 21:31:23;;;;;;;15.73;10.87;;;7.50;68.50;;;;;;20916023;28;20570;-70
2022/04/04 21:41:25;;;;;;;22.43;11.20;;;7.50;68.90;;;;;;20915394;28;20245;-69
2022/04/04 21:51:26;;;;;;;15.10;11.37;;;7.50;69.40;;;;;;20914906;28;20203;-69
2022/04/04 22:01:28;;;;;;;15.17;11.97;;;7.60;68.70;;;;;;20914393;28;20568;-70
2022/04/04 22:11:32;;;;;;;18.27;11.80;;;7.60;69.90;;;;;;20913213;28;20207;-70
2022/04/04 22:21:34;;;;;;;16.23;11.03;;;7.60;68.70;;;;;;20859746;28;20236;-71
2022/04/04 22:31:36;;;;;;;14.10;11.03;;;7.50;70.00;;;;;;20840753;28;20308;-67
2022/04/04 22:41:38;;;;;;;13.40;10.23;;;7.50;70.60;;;;;;20831053;28;20244;-69
2022/04/04 22:51:40;;;;;;;12.33;10.37;;;7.50;71.00;;;;;;20829218;28;20201;-69
2022/04/04 23:01:42;;;;;;;12.30;10.07;;;7.50;71.70;;;;;;20828944;28;20239;-68
2022/04/04 23:11:44;;;;;;;13.67;9.60;;;7.50;71.60;;;;;;20828432;28;20215;-69
2022/04/04 23:21:46;;;;;;;11.53;9.70;;;7.50;72.10;;;;;;20864683;28;20237;-68
2022/04/04 23:31:47;;;;;;;13.43;8.83;;;7.40;72.50;;;;;;20843636;28;20268;-68
2022/04/04 23:41:50;;;;;;;10.60;8.63;;;7.50;72.60;;;;;;20842305;28;20299;-69
2022/04/04 23:51:52;;;;;;;12.10;8.23;;;7.40;72.40;;;;;;20841734;28;20216;-69
